Terminal Aerodrome Forecast
Issued by NWS

Home | Current Version | Previous Version | Text Only | Print | Product List | Glossary On
Versions: 1 2 3 4 5 6 7 8 9 10 11 12 13 14 15 16 17 18 19 20 21 22 23 24 25 26 27 28 29 30 31
000
FTUS42 KCAE 241700
TAFOGB
TAF
KOGB 241733Z 2418/2518 09006KT P6SM SKC
     FM242000 12009KT P6SM FEW045
     FM250600 13004KT P6SM SCT015
     FM250800 13004KT 4SM BR SCT008 BKN015
     FM251400 22012G20KT P6SM SCT015 BKN045=

USA.gov is the U.S. government's official web portal to all federal, state and local government web resources and services.